sensor_id;sensor_type;location;lat;lon;timestamp;P1;P2;P0
65803;PMS5003;65658;63.740;34.316;2023-03-05T00:02:52;4;4;
65803;PMS5003;65658;63.740;34.316;2023-03-05T00:06:52;5;5;
65803;PMS5003;65658;63.740;34.316;2023-03-05T00:11:06;8;8;
65803;PMS5003;65658;63.740;34.316;2023-03-05T00:14:53;4;4;
65803;PMS5003;65658;63.740;34.316;2023-03-05T00:18:51;4;4;
65803;PMS5003;65658;63.740;34.316;2023-03-05T00:22:39;6;8;
65803;PMS5003;65658;63.740;34.316;2023-03-05T00:26:39;6;8;
65803;PMS5003;65658;63.740;34.316;2023-03-05T00:30:26;8;8;
65803;PMS5003;65658;63.740;34.316;2023-03-05T00:34:24;6;6;
65803;PMS5003;65658;63.740;34.316;2023-03-05T00:38:45;6;6;
65803;PMS5003;65658;63.740;34.316;2023-03-05T00:42:45;5;6;
65803;PMS5003;65658;63.740;34.316;2023-03-05T00:46:43;6;6;
65803;PMS5003;65658;63.740;34.316;2023-03-05T00:50:44;5;5;
65803;PMS5003;65658;63.740;34.316;2023-03-05T00:54:44;6;6;
65803;PMS5003;65658;63.740;34.316;2023-03-05T00:58:31;6;6;
65803;PMS5003;65658;63.740;34.316;2023-03-05T01:02:20;4;4;
65803;PMS5003;65658;63.740;34.316;2023-03-05T01:06:09;4;4;
65803;PMS5003;65658;63.740;34.316;2023-03-05T01:09:59;6;6;
65803;PMS5003;65658;63.740;34.316;2023-03-05T01:14:10;6;8;
65803;PMS5003;65658;63.740;34.316;2023-03-05T01:18:23;9;9;
65803;PMS5003;65658;63.740;34.316;2023-03-05T01:22:21;6;8;
65803;PMS5003;65658;63.740;34.316;2023-03-05T01:26:21;4;4;
65803;PMS5003;65658;63.740;34.316;2023-03-05T01:30:09;6;8;
65803;PMS5003;65658;63.740;34.316;2023-03-05T01:33:57;8;8;
65803;PMS5003;65658;63.740;34.316;2023-03-05T01:37:45;5;5;
65803;PMS5003;65658;63.740;34.316;2023-03-05T01:41:44;6;8;
65803;PMS5003;65658;63.740;34.316;2023-03-05T01:49:37;8;8;
65803;PMS5003;65658;63.740;34.316;2023-03-05T01:53:39;5;5;
65803;PMS5003;65658;63.740;34.316;2023-03-05T02:02:05;2;2;
65803;PMS5003;65658;63.740;34.316;2023-03-05T02:06:03;5;5;
65803;PMS5003;65658;63.740;34.316;2023-03-05T02:09:51;6;6;
65803;PMS5003;65658;63.740;34.316;2023-03-05T02:14:03;1;1;
65803;PMS5003;65658;63.740;34.316;2023-03-05T02:18:24;6;6;
65803;PMS5003;65658;63.740;34.316;2023-03-05T02:22:35;6;6;
65803;PMS5003;65658;63.740;34.316;2023-03-05T02:26:45;5;9;
65803;PMS5003;65658;63.740;34.316;2023-03-05T02:30:56;5;6;
65803;PMS5003;65658;63.740;34.316;2023-03-05T02:35:06;6;8;
65803;PMS5003;65658;63.740;34.316;2023-03-05T02:38:54;8;8;
65803;PMS5003;65658;63.740;34.316;2023-03-05T02:43:26;4;4;
65803;PMS5003;65658;63.740;34.316;2023-03-05T02:47:59;6;6;
65803;PMS5003;65658;63.740;34.316;2023-03-05T02:52:31;6;6;
65803;PMS5003;65658;63.740;34.316;2023-03-05T02:57:06;6;6;
65803;PMS5003;65658;63.740;34.316;2023-03-05T03:01:03;6;8;
65803;PMS5003;65658;63.740;34.316;2023-03-05T03:05:04;9;9;
65803;PMS5003;65658;63.740;34.316;2023-03-05T03:09:14;8;9;
65803;PMS5003;65658;63.740;34.316;2023-03-05T03:13:15;6;6;
65803;PMS5003;65658;63.740;34.316;2023-03-05T03:17:48;2;2;
65803;PMS5003;65658;63.740;34.316;2023-03-05T03:21:49;8;9;
65803;PMS5003;65658;63.740;34.316;2023-03-05T03:25:58;8;10;
65803;PMS5003;65658;63.740;34.316;2023-03-05T03:30:42;8;8;
65803;PMS5003;65658;63.740;34.316;2023-03-05T03:34:31;6;8;
65803;PMS5003;65658;63.740;34.316;2023-03-05T03:38:29;9;12;
65803;PMS5003;65658;63.740;34.316;2023-03-05T03:42:40;11;11;
65803;PMS5003;65658;63.740;34.316;2023-03-05T03:46:30;11;11;
65803;PMS5003;65658;63.740;34.316;2023-03-05T03:50:31;6;8;
65803;PMS5003;65658;63.740;34.316;2023-03-05T03:54:42;6;6;
65803;PMS5003;65658;63.740;34.316;2023-03-05T03:59:03;6;8;
65803;PMS5003;65658;63.740;34.316;2023-03-05T04:03:13;8;11;
65803;PMS5003;65658;63.740;34.316;2023-03-05T04:07:02;8;11;
65803;PMS5003;65658;63.740;34.316;2023-03-05T04:11:23;8;11;
65803;PMS5003;65658;63.740;34.316;2023-03-05T04:15:12;8;11;
65803;PMS5003;65658;63.740;34.316;2023-03-05T04:19:23;6;8;
65803;PMS5003;65658;63.740;34.316;2023-03-05T04:23:34;9;9;
65803;PMS5003;65658;63.740;34.316;2023-03-05T04:27:24;12;15;
65803;PMS5003;65658;63.740;34.316;2023-03-05T04:32:07;6;6;
65803;PMS5003;65658;63.740;34.316;2023-03-05T04:36:07;8;8;
65803;PMS5003;65658;63.740;34.316;2023-03-05T04:40:07;12;12;
65803;PMS5003;65658;63.740;34.316;2023-03-05T04:44:29;9;11;
65803;PMS5003;65658;63.740;34.316;2023-03-05T04:48:51;9;10;
65803;PMS5003;65658;63.740;34.316;2023-03-05T04:52:50;9;9;
65803;PMS5003;65658;63.740;34.316;2023-03-05T04:57:34;9;9;
65803;PMS5003;65658;63.740;34.316;2023-03-05T05:01:56;9;10;
65803;PMS5003;65658;63.740;34.316;2023-03-05T05:06:07;10;10;
65803;PMS5003;65658;63.740;34.316;2023-03-05T05:10:17;9;9;
65803;PMS5003;65658;63.740;34.316;2023-03-05T05:14:08;9;11;
65803;PMS5003;65658;63.740;34.316;2023-03-05T05:18:08;13;13;
65803;PMS5003;65658;63.740;34.316;2023-03-05T05:22:31;12;15;
65803;PMS5003;65658;63.740;34.316;2023-03-05T05:26:29;9;11;
65803;PMS5003;65658;63.740;34.316;2023-03-05T05:31:05;18;18;
65803;PMS5003;65658;63.740;34.316;2023-03-05T05:35:05;20;20;
65803;PMS5003;65658;63.740;34.316;2023-03-05T05:39:40;16;18;
65803;PMS5003;65658;63.740;34.316;2023-03-05T05:43:51;16;17;
65803;PMS5003;65658;63.740;34.316;2023-03-05T05:47:50;13;15;
65803;PMS5003;65658;63.740;34.316;2023-03-05T05:52:13;10;12;
65803;PMS5003;65658;63.740;34.316;2023-03-05T05:56:45;16;17;
65803;PMS5003;65658;63.740;34.316;2023-03-05T06:01:43;10;12;
65803;PMS5003;65658;63.740;34.316;2023-03-05T06:05:52;13;14;
65803;PMS5003;65658;63.740;34.316;2023-03-05T06:10:24;10;10;
65803;PMS5003;65658;63.740;34.316;2023-03-05T06:14:56;10;12;
65803;PMS5003;65658;63.740;34.316;2023-03-05T06:19:07;14;16;
65803;PMS5003;65658;63.740;34.316;2023-03-05T06:23:06;8;9;
65803;PMS5003;65658;63.740;34.316;2023-03-05T06:26:54;12;12;
65803;PMS5003;65658;63.740;34.316;2023-03-05T06:31:09;10;13;
65803;PMS5003;65658;63.740;34.316;2023-03-05T06:35:20;10;10;
65803;PMS5003;65658;63.740;34.316;2023-03-05T06:39:08;12;13;
65803;PMS5003;65658;63.740;34.316;2023-03-05T06:43:07;9;10;
65803;PMS5003;65658;63.740;34.316;2023-03-05T06:46:55;13;16;
65803;PMS5003;65658;63.740;34.316;2023-03-05T06:50:43;10;10;
65803;PMS5003;65658;63.740;34.316;2023-03-05T06:54:30;10;10;
65803;PMS5003;65658;63.740;34.316;2023-03-05T06:58:28;10;10;
65803;PMS5003;65658;63.740;34.316;2023-03-05T07:02:15;10;10;
65803;PMS5003;65658;63.740;34.316;2023-03-05T07:06:14;10;12;
65803;PMS5003;65658;63.740;34.316;2023-03-05T07:10:15;17;17;
65803;PMS5003;65658;63.740;34.316;2023-03-05T07:15:00;20;24;
65803;PMS5003;65658;63.740;34.316;2023-03-05T07:19:46;19;23;
65803;PMS5003;65658;63.740;34.316;2023-03-05T07:24:10;18;19;
65803;PMS5003;65658;63.740;34.316;2023-03-05T07:27:58;17;21;
65803;PMS5003;65658;63.740;34.316;2023-03-05T07:31:57;18;21;
65803;PMS5003;65658;63.740;34.316;2023-03-05T07:35:58;14;15;
65803;PMS5003;65658;63.740;34.316;2023-03-05T07:39:46;12;15;
65803;PMS5003;65658;63.740;34.316;2023-03-05T07:43:33;16;19;
65803;PMS5003;65658;63.740;34.316;2023-03-05T07:47:21;11;14;
65803;PMS5003;65658;63.740;34.316;2023-03-05T07:51:12;12;14;
65803;PMS5003;65658;63.740;34.316;2023-03-05T07:54:59;14;15;
65803;PMS5003;65658;63.740;34.316;2023-03-05T07:58:46;14;16;
65803;PMS5003;65658;63.740;34.316;2023-03-05T08:02:31;10;10;
65803;PMS5003;65658;63.740;34.316;2023-03-05T08:06:19;16;17;
65803;PMS5003;65658;63.740;34.316;2023-03-05T08:10:06;15;15;
65803;PMS5003;65658;63.740;34.316;2023-03-05T08:13:53;11;12;
65803;PMS5003;65658;63.740;34.316;2023-03-05T08:17:41;10;12;
65803;PMS5003;65658;63.740;34.316;2023-03-05T08:21:30;13;14;
65803;PMS5003;65658;63.740;34.316;2023-03-05T08:25:17;11;12;
65803;PMS5003;65658;63.740;34.316;2023-03-05T08:29:06;14;14;
65803;PMS5003;65658;63.740;34.316;2023-03-05T08:32:55;18;20;
65803;PMS5003;65658;63.740;34.316;2023-03-05T08:37:06;12;12;
65803;PMS5003;65658;63.740;34.316;2023-03-05T08:41:03;10;10;
65803;PMS5003;65658;63.740;34.316;2023-03-05T08:44:50;12;13;
65803;PMS5003;65658;63.740;34.316;2023-03-05T08:48:39;10;11;
65803;PMS5003;65658;63.740;34.316;2023-03-05T08:52:37;11;13;
65803;PMS5003;65658;63.740;34.316;2023-03-05T08:56:38;10;10;
65803;PMS5003;65658;63.740;34.316;2023-03-05T09:00:36;10;10;
65803;PMS5003;65658;63.740;34.316;2023-03-05T09:04:36;10;11;
65803;PMS5003;65658;63.740;34.316;2023-03-05T09:08:33;10;10;
65803;PMS5003;65658;63.740;34.316;2023-03-05T09:12:21;11;11;
65803;PMS5003;65658;63.740;34.316;2023-03-05T09:16:12;11;11;
65803;PMS5003;65658;63.740;34.316;2023-03-05T09:20:04;7;9;
65803;PMS5003;65658;63.740;34.316;2023-03-05T09:23:51;10;11;
65803;PMS5003;65658;63.740;34.316;2023-03-05T09:27:39;10;11;
65803;PMS5003;65658;63.740;34.316;2023-03-05T09:31:37;7;10;
65803;PMS5003;65658;63.740;34.316;2023-03-05T09:35:25;9;9;
65803;PMS5003;65658;63.740;34.316;2023-03-05T09:39:14;9;9;
65803;PMS5003;65658;63.740;34.316;2023-03-05T09:43:02;9;9;
65803;PMS5003;65658;63.740;34.316;2023-03-05T09:46:53;7;7;
65803;PMS5003;65658;63.740;34.316;2023-03-05T09:50:47;6;6;
65803;PMS5003;65658;63.740;34.316;2023-03-05T09:54:43;7;9;
65803;PMS5003;65658;63.740;34.316;2023-03-05T09:58:34;9;10;
65803;PMS5003;65658;63.740;34.316;2023-03-05T10:02:24;10;10;
65803;PMS5003;65658;63.740;34.316;2023-03-05T10:13:55;6;6;
65803;PMS5003;65658;63.740;34.316;2023-03-05T10:21:35;5;5;
65803;PMS5003;65658;63.740;34.316;2023-03-05T10:25:38;6;7;
65803;PMS5003;65658;63.740;34.316;2023-03-05T10:33:11;9;9;
65803;PMS5003;65658;63.740;34.316;2023-03-05T10:37:05;6;7;
65803;PMS5003;65658;63.740;34.316;2023-03-05T10:40:53;6;6;
65803;PMS5003;65658;63.740;34.316;2023-03-05T10:44:42;6;6;
65803;PMS5003;65658;63.740;34.316;2023-03-05T10:48:58;7;7;
65803;PMS5003;65658;63.740;34.316;2023-03-05T10:52:34;7;7;
65803;PMS5003;65658;63.740;34.316;2023-03-05T10:56:30;7;7;
65803;PMS5003;65658;63.740;34.316;2023-03-05T11:04:05;8;8;
65803;PMS5003;65658;63.740;34.316;2023-03-05T11:07:52;8;8;
65803;PMS5003;65658;63.740;34.316;2023-03-05T11:11:38;7;10;
65803;PMS5003;65658;63.740;34.316;2023-03-05T11:15:26;9;10;
65803;PMS5003;65658;63.740;34.316;2023-03-05T11:26:51;13;13;
65803;PMS5003;65658;63.740;34.316;2023-03-05T11:30:39;8;8;
65803;PMS5003;65658;63.740;34.316;2023-03-05T11:34:37;6;8;
65803;PMS5003;65658;63.740;34.316;2023-03-05T11:38:24;18;19;
65803;PMS5003;65658;63.740;34.316;2023-03-05T11:42:13;14;16;
65803;PMS5003;65658;63.740;34.316;2023-03-05T11:46:02;10;12;
65803;PMS5003;65658;63.740;34.316;2023-03-05T11:49:50;12;15;
65803;PMS5003;65658;63.740;34.316;2023-03-05T11:53:37;10;12;
65803;PMS5003;65658;63.740;34.316;2023-03-05T11:58:22;9;9;
65803;PMS5003;65658;63.740;34.316;2023-03-05T12:01:27;10;11;
65803;PMS5003;65658;63.740;34.316;2023-03-05T12:05:15;14;15;
65803;PMS5003;65658;63.740;34.316;2023-03-05T12:12:56;20;21;
65803;PMS5003;65658;63.740;34.316;2023-03-05T12:16:47;20;25;
65803;PMS5003;65658;63.740;34.316;2023-03-05T12:28:55;8;8;
65803;PMS5003;65658;63.740;34.316;2023-03-05T12:51:41;8;9;
65803;PMS5003;65658;63.740;34.316;2023-03-05T12:59:20;7;7;
65803;PMS5003;65658;63.740;34.316;2023-03-05T13:03:09;8;9;
65803;PMS5003;65658;63.740;34.316;2023-03-05T13:06:57;9;12;
65803;PMS5003;65658;63.740;34.316;2023-03-05T13:14:45;9;10;
65803;PMS5003;65658;63.740;34.316;2023-03-05T13:18:28;10;10;
65803;PMS5003;65658;63.740;34.316;2023-03-05T13:22:15;6;7;
65803;PMS5003;65658;63.740;34.316;2023-03-05T13:26:08;8;9;
65803;PMS5003;65658;63.740;34.316;2023-03-05T13:29:53;12;13;
65803;PMS5003;65658;63.740;34.316;2023-03-05T13:33:40;11;12;
65803;PMS5003;65658;63.740;34.316;2023-03-05T13:37:32;9;9;
65803;PMS5003;65658;63.740;34.316;2023-03-05T13:41:22;12;12;
65803;PMS5003;65658;63.740;34.316;2023-03-05T13:52:52;16;17;
65803;PMS5003;65658;63.740;34.316;2023-03-05T13:56:47;11;11;
65803;PMS5003;65658;63.740;34.316;2023-03-05T14:00:34;11;12;
65803;PMS5003;65658;63.740;34.316;2023-03-05T14:23:59;13;14;
65803;PMS5003;65658;63.740;34.316;2023-03-05T14:32:42;13;13;
65803;PMS5003;65658;63.740;34.316;2023-03-05T14:46:25;13;15;
65803;PMS5003;65658;63.740;34.316;2023-03-05T14:51:00;16;19;
65803;PMS5003;65658;63.740;34.316;2023-03-05T14:55:32;12;12;
65803;PMS5003;65658;63.740;34.316;2023-03-05T15:00:18;8;12;
65803;PMS5003;65658;63.740;34.316;2023-03-05T15:04:18;7;8;
65803;PMS5003;65658;63.740;34.316;2023-03-05T15:09:04;11;11;
65803;PMS5003;65658;63.740;34.316;2023-03-05T15:13:07;8;9;
65803;PMS5003;65658;63.740;34.316;2023-03-05T15:18:25;8;8;
65803;PMS5003;65658;63.740;34.316;2023-03-05T15:22:35;18;20;
65803;PMS5003;65658;63.740;34.316;2023-03-05T15:26:45;12;15;
65803;PMS5003;65658;63.740;34.316;2023-03-05T15:31:06;18;18;
65803;PMS5003;65658;63.740;34.316;2023-03-05T15:34:54;15;19;
65803;PMS5003;65658;63.740;34.316;2023-03-05T15:39:14;8;9;
65803;PMS5003;65658;63.740;34.316;2023-03-05T15:43:13;15;17;
65803;PMS5003;65658;63.740;34.316;2023-03-05T15:47:34;14;15;
65803;PMS5003;65658;63.740;34.316;2023-03-05T15:51:20;17;22;
65803;PMS5003;65658;63.740;34.316;2023-03-05T15:55:07;17;20;
65803;PMS5003;65658;63.740;34.316;2023-03-05T15:58:53;17;20;
65803;PMS5003;65658;63.740;34.316;2023-03-05T16:02:42;27;27;
65803;PMS5003;65658;63.740;34.316;2023-03-05T16:06:29;21;26;
65803;PMS5003;65658;63.740;34.316;2023-03-05T16:10:20;15;20;
65803;PMS5003;65658;63.740;34.316;2023-03-05T16:14:08;17;21;
65803;PMS5003;65658;63.740;34.316;2023-03-05T16:17:55;13;13;
65803;PMS5003;65658;63.740;34.316;2023-03-05T16:22:16;7;8;
65803;PMS5003;65658;63.740;34.316;2023-03-05T16:26:14;8;8;
65803;PMS5003;65658;63.740;34.316;2023-03-05T16:30:02;10;11;
65803;PMS5003;65658;63.740;34.316;2023-03-05T16:33:48;14;14;
65803;PMS5003;65658;63.740;34.316;2023-03-05T16:37:35;14;17;
65803;PMS5003;65658;63.740;34.316;2023-03-05T16:41:22;13;13;
65803;PMS5003;65658;63.740;34.316;2023-03-05T16:45:08;13;16;
65803;PMS5003;65658;63.740;34.316;2023-03-05T16:48:56;10;11;
65803;PMS5003;65658;63.740;34.316;2023-03-05T16:52:43;13;14;
65803;PMS5003;65658;63.740;34.316;2023-03-05T16:56:29;11;13;
65803;PMS5003;65658;63.740;34.316;2023-03-05T17:00:15;13;16;
65803;PMS5003;65658;63.740;34.316;2023-03-05T17:04:02;14;14;
65803;PMS5003;65658;63.740;34.316;2023-03-05T17:07:50;14;16;
65803;PMS5003;65658;63.740;34.316;2023-03-05T17:11:37;16;16;
65803;PMS5003;65658;63.740;34.316;2023-03-05T17:15:24;10;11;
65803;PMS5003;65658;63.740;34.316;2023-03-05T17:19:11;10;11;
65803;PMS5003;65658;63.740;34.316;2023-03-05T17:22:58;10;11;
65803;PMS5003;65658;63.740;34.316;2023-03-05T17:26:54;7;7;
65803;PMS5003;65658;63.740;34.316;2023-03-05T17:30:41;9;9;
65803;PMS5003;65658;63.740;34.316;2023-03-05T17:34:28;7;9;
65803;PMS5003;65658;63.740;34.316;2023-03-05T17:38:15;10;10;
65803;PMS5003;65658;63.740;34.316;2023-03-05T17:42:01;10;10;
65803;PMS5003;65658;63.740;34.316;2023-03-05T17:45:48;10;10;
65803;PMS5003;65658;63.740;34.316;2023-03-05T17:49:35;12;13;
65803;PMS5003;65658;63.740;34.316;2023-03-05T17:53:22;9;10;
65803;PMS5003;65658;63.740;34.316;2023-03-05T17:57:09;9;9;
65803;PMS5003;65658;63.740;34.316;2023-03-05T18:00:56;9;10;
65803;PMS5003;65658;63.740;34.316;2023-03-05T18:04:43;10;12;
65803;PMS5003;65658;63.740;34.316;2023-03-05T18:08:30;10;10;
65803;PMS5003;65658;63.740;34.316;2023-03-05T18:12:18;12;13;
65803;PMS5003;65658;63.740;34.316;2023-03-05T18:16:06;9;10;
65803;PMS5003;65658;63.740;34.316;2023-03-05T18:19:53;10;12;
65803;PMS5003;65658;63.740;34.316;2023-03-05T18:23:40;10;12;
65803;PMS5003;65658;63.740;34.316;2023-03-05T18:27:27;9;9;
65803;PMS5003;65658;63.740;34.316;2023-03-05T18:31:13;13;15;
65803;PMS5003;65658;63.740;34.316;2023-03-05T18:34:59;12;15;
65803;PMS5003;65658;63.740;34.316;2023-03-05T18:38:46;15;18;
65803;PMS5003;65658;63.740;34.316;2023-03-05T18:42:36;13;16;
65803;PMS5003;65658;63.740;34.316;2023-03-05T18:46:23;10;10;
65803;PMS5003;65658;63.740;34.316;2023-03-05T18:50:11;10;10;
65803;PMS5003;65658;63.740;34.316;2023-03-05T18:53:58;12;12;
65803;PMS5003;65658;63.740;34.316;2023-03-05T18:57:45;15;15;
65803;PMS5003;65658;63.740;34.316;2023-03-05T19:01:43;12;13;
65803;PMS5003;65658;63.740;34.316;2023-03-05T19:05:29;9;10;
65803;PMS5003;65658;63.740;34.316;2023-03-05T19:09:16;9;9;
65803;PMS5003;65658;63.740;34.316;2023-03-05T19:16:49;13;13;
65803;PMS5003;65658;63.740;34.316;2023-03-05T19:20:35;12;12;
65803;PMS5003;65658;63.740;34.316;2023-03-05T19:24:23;15;15;
65803;PMS5003;65658;63.740;34.316;2023-03-05T19:28:19;25;25;
65803;PMS5003;65658;63.740;34.316;2023-03-05T19:32:07;18;19;
65803;PMS5003;65658;63.740;34.316;2023-03-05T19:35:55;13;13;
65803;PMS5003;65658;63.740;34.316;2023-03-05T19:39:42;13;16;
65803;PMS5003;65658;63.740;34.316;2023-03-05T19:43:29;10;10;
65803;PMS5003;65658;63.740;34.316;2023-03-05T19:47:17;12;12;
65803;PMS5003;65658;63.740;34.316;2023-03-05T19:54:58;10;10;
65803;PMS5003;65658;63.740;34.316;2023-03-05T19:58:45;15;18;
65803;PMS5003;65658;63.740;34.316;2023-03-05T20:02:32;12;13;
65803;PMS5003;65658;63.740;34.316;2023-03-05T20:06:18;13;13;
65803;PMS5003;65658;63.740;34.316;2023-03-05T20:10:05;7;7;
65803;PMS5003;65658;63.740;34.316;2023-03-05T20:13:53;10;12;
65803;PMS5003;65658;63.740;34.316;2023-03-05T20:17:40;13;13;
65803;PMS5003;65658;63.740;34.316;2023-03-05T20:21:32;13;16;
65803;PMS5003;65658;63.740;34.316;2023-03-05T20:25:19;13;15;
65803;PMS5003;65658;63.740;34.316;2023-03-05T20:29:07;10;15;
65803;PMS5003;65658;63.740;34.316;2023-03-05T20:32:54;13;15;
65803;PMS5003;65658;63.740;34.316;2023-03-05T20:36:41;13;16;
65803;PMS5003;65658;63.740;34.316;2023-03-05T20:40:28;9;9;
65803;PMS5003;65658;63.740;34.316;2023-03-05T20:44:15;12;13;
65803;PMS5003;65658;63.740;34.316;2023-03-05T20:48:02;19;21;
65803;PMS5003;65658;63.740;34.316;2023-03-05T20:51:51;28;28;
65803;PMS5003;65658;63.740;34.316;2023-03-05T20:55:38;16;18;
65803;PMS5003;65658;63.740;34.316;2023-03-05T20:59:26;13;16;
65803;PMS5003;65658;63.740;34.316;2023-03-05T21:03:13;13;16;
65803;PMS5003;65658;63.740;34.316;2023-03-05T21:06:59;16;18;
65803;PMS5003;65658;63.740;34.316;2023-03-05T21:10:46;10;10;
65803;PMS5003;65658;63.740;34.316;2023-03-05T21:14:43;7;10;
65803;PMS5003;65658;63.740;34.316;2023-03-05T21:18:30;12;15;
65803;PMS5003;65658;63.740;34.316;2023-03-05T21:22:18;12;13;
65803;PMS5003;65658;63.740;34.316;2023-03-05T21:26:05;15;18;
65803;PMS5003;65658;63.740;34.316;2023-03-05T21:29:52;13;15;
65803;PMS5003;65658;63.740;34.316;2023-03-05T21:33:39;12;13;
65803;PMS5003;65658;63.740;34.316;2023-03-05T21:37:27;13;15;
65803;PMS5003;65658;63.740;34.316;2023-03-05T21:41:14;12;15;
65803;PMS5003;65658;63.740;34.316;2023-03-05T21:45:01;12;15;
65803;PMS5003;65658;63.740;34.316;2023-03-05T21:48:48;12;15;
65803;PMS5003;65658;63.740;34.316;2023-03-05T21:52:36;13;13;
65803;PMS5003;65658;63.740;34.316;2023-03-05T21:56:23;12;13;
65803;PMS5003;65658;63.740;34.316;2023-03-05T22:00:10;12;12;
65803;PMS5003;65658;63.740;34.316;2023-03-05T22:03:57;15;16;
65803;PMS5003;65658;63.740;34.316;2023-03-05T22:07:44;13;15;
65803;PMS5003;65658;63.740;34.316;2023-03-05T22:11:31;10;12;
65803;PMS5003;65658;63.740;34.316;2023-03-05T22:15:19;12;15;
65803;PMS5003;65658;63.740;34.316;2023-03-05T22:19:06;13;15;
65803;PMS5003;65658;63.740;34.316;2023-03-05T22:22:53;12;12;
65803;PMS5003;65658;63.740;34.316;2023-03-05T22:26:40;9;9;
65803;PMS5003;65658;63.740;34.316;2023-03-05T22:30:42;10;12;
65803;PMS5003;65658;63.740;34.316;2023-03-05T22:34:28;9;10;
65803;PMS5003;65658;63.740;34.316;2023-03-05T22:38:16;10;10;
65803;PMS5003;65658;63.740;34.316;2023-03-05T22:42:13;9;10;
65803;PMS5003;65658;63.740;34.316;2023-03-05T22:46:06;12;12;
65803;PMS5003;65658;63.740;34.316;2023-03-05T22:49:51;12;15;
65803;PMS5003;65658;63.740;34.316;2023-03-05T22:53:39;9;10;
65803;PMS5003;65658;63.740;34.316;2023-03-05T22:57:26;7;7;
65803;PMS5003;65658;63.740;34.316;2023-03-05T23:01:18;9;12;
65803;PMS5003;65658;63.740;34.316;2023-03-05T23:05:05;9;9;
65803;PMS5003;65658;63.740;34.316;2023-03-05T23:08:52;9;12;
65803;PMS5003;65658;63.740;34.316;2023-03-05T23:12:41;10;12;
65803;PMS5003;65658;63.740;34.316;2023-03-05T23:16:28;10;12;
65803;PMS5003;65658;63.740;34.316;2023-03-05T23:20:16;10;12;
65803;PMS5003;65658;63.740;34.316;2023-03-05T23:24:03;9;9;
65803;PMS5003;65658;63.740;34.316;2023-03-05T23:27:50;9;12;
65803;PMS5003;65658;63.740;34.316;2023-03-05T23:31:37;13;15;
65803;PMS5003;65658;63.740;34.316;2023-03-05T23:35:26;13;15;
65803;PMS5003;65658;63.740;34.316;2023-03-05T23:39:24;13;15;
65803;PMS5003;65658;63.740;34.316;2023-03-05T23:43:11;12;12;
65803;PMS5003;65658;63.740;34.316;2023-03-05T23:46:58;7;9;
65803;PMS5003;65658;63.740;34.316;2023-03-05T23:50:45;6;7;
65803;PMS5003;65658;63.740;34.316;2023-03-05T23:54:33;9;12;
65803;PMS5003;65658;63.740;34.316;2023-03-05T23:58:20;6;6;
